createdAt,value
2019-02-07T00:00:47.433Z,43.28
2019-02-07T00:03:42.244Z,41.25
2019-02-07T00:06:36.962Z,41.88
2019-02-07T00:09:31.443Z,39.95
2019-02-07T00:12:26.977Z,40.25
2019-02-07T00:15:22.142Z,41.70
2019-02-07T00:18:17.040Z,41.15
2019-02-07T00:21:11.838Z,41.37
2019-02-07T00:24:06.658Z,40.08
2019-02-07T00:27:01.534Z,38.73
2019-02-07T00:29:56.351Z,39.65
2019-02-07T00:32:51.433Z,40.15
2019-02-07T00:35:46.012Z,39.92
2019-02-07T00:38:41.140Z,41.15
2019-02-07T00:41:35.951Z,41.53
2019-02-07T00:44:30.764Z,43.30
2019-02-07T00:47:25.589Z,45.67
2019-02-07T00:50:20.780Z,44.73
2019-02-07T00:53:16.140Z,44.18
2019-02-07T00:56:10.679Z,44.08
2019-02-07T00:59:05.699Z,45.95
2019-02-07T01:02:00.554Z,47.43
2019-02-07T01:04:55.467Z,49.23
2019-02-07T01:07:50.369Z,49.30
2019-02-07T01:10:45.752Z,48.80
2019-02-07T01:13:40.867Z,48.55
2019-02-07T01:16:36.132Z,46.55
2019-02-07T01:19:32.346Z,45.25
2019-02-07T01:22:27.860Z,49.15
2019-02-07T01:25:24.041Z,48.90
2019-02-07T01:28:18.956Z,50.52
2019-02-07T01:31:13.872Z,50.12
2019-02-07T01:34:09.187Z,45.83
2019-02-07T01:37:03.760Z,44.35
2019-02-07T01:39:58.343Z,43.05
2019-02-07T01:42:55.884Z,43.85
2019-02-07T01:45:50.554Z,43.33
2019-02-07T01:48:44.985Z,42.05
2019-02-07T01:51:39.855Z,42.90
2019-02-07T01:54:34.812Z,43.10
2019-02-07T01:57:29.717Z,44.90
2019-02-07T02:00:25.405Z,42.85
2019-02-07T02:03:20.221Z,42.53
2019-02-07T02:06:15.706Z,46.10
2019-02-07T02:09:13.176Z,45.12
2019-02-07T02:12:08.578Z,45.43
2019-02-07T02:15:03.638Z,48.87
2019-02-07T02:18:00.109Z,44.85
2019-02-07T02:20:55.080Z,47.88
2019-02-07T02:23:50.172Z,45.73
2019-02-07T02:26:44.648Z,51.40
2019-02-07T02:29:39.641Z,47.95
2019-02-07T02:32:34.800Z,48.65
2019-02-07T02:35:30.282Z,47.50
2019-02-07T02:38:25.748Z,44.23
2019-02-07T02:41:20.769Z,48.85
2019-02-07T02:44:15.619Z,49.58
2019-02-07T02:47:10.726Z,48.05
2019-02-07T02:50:06.237Z,47.90
2019-02-07T02:53:01.195Z,47.75
2019-02-07T02:55:57.761Z,46.75
2019-02-07T02:58:52.837Z,49.48
2019-02-07T03:02:00.820Z,49.13
2019-02-07T03:05:02.394Z,48.80
2019-02-07T03:08:17.930Z,53.10
2019-02-07T03:11:28.839Z,51.00
2019-02-07T03:14:47.528Z,50.88
2019-02-07T03:18:04.764Z,48.95
2019-02-07T03:21:18.190Z,45.05
2019-02-07T03:24:36.910Z,43.50
2019-02-07T03:27:49.867Z,46.98
2019-02-07T03:31:11.193Z,46.40
2019-02-07T03:34:22.224Z,44.95
2019-02-07T03:37:35.937Z,46.18
2019-02-07T03:40:51.490Z,47.78
2019-02-07T03:44:13.244Z,46.75
2019-02-07T03:47:20.393Z,47.35
2019-02-07T03:50:27.370Z,49.58
2019-02-07T03:53:39.393Z,45.33
2019-02-07T03:56:52.249Z,49.20
2019-02-07T04:00:17.124Z,48.40
2019-02-07T04:03:30.173Z,47.30
2019-02-07T04:06:39.383Z,54.95
2019-02-07T04:09:55.090Z,52.75
2019-02-07T04:13:12.274Z,49.42
2019-02-07T04:16:16.007Z,47.85
2019-02-07T04:19:43.452Z,47.40
2019-02-07T04:23:09.557Z,45.17
2019-02-07T04:26:28.039Z,44.70
2019-02-07T04:29:43.780Z,44.88
2019-02-07T04:32:59.887Z,44.42
2019-02-07T04:36:14.803Z,45.63
2019-02-07T04:39:29.455Z,46.10
2019-02-07T04:42:47.223Z,47.75
2019-02-07T04:46:12.083Z,43.17
2019-02-07T04:49:30.026Z,44.98
2019-02-07T04:52:41.186Z,45.45
2019-02-07T04:55:56.416Z,46.83
2019-02-07T04:59:28.571Z,43.95
2019-02-07T05:05:27.665Z,43.85
2019-02-07T05:08:40.348Z,49.90
2019-02-07T05:11:56.362Z,42.80
2019-02-07T05:15:09.171Z,43.78
2019-02-07T05:18:28.977Z,41.85
2019-02-07T05:22:09.028Z,40.85
2019-02-07T05:28:58.086Z,41.68
2019-02-07T05:32:23.950Z,41.83
2019-02-07T05:35:30.089Z,42.55
2019-02-07T05:38:55.800Z,42.48
2019-02-07T05:46:12.706Z,42.00
2019-02-07T05:49:28.159Z,41.95
2019-02-07T05:52:53.903Z,39.92
2019-02-07T05:59:53.143Z,40.25
2019-02-07T06:03:05.736Z,44.95
2019-02-07T06:06:28.425Z,41.10
2019-02-07T06:09:55.316Z,40.30
2019-02-07T06:13:17.760Z,38.73
2019-02-07T06:16:34.432Z,38.35
2019-02-07T06:19:45.759Z,40.73
2019-02-07T06:22:49.106Z,40.75
2019-02-07T06:26:00.462Z,39.08
2019-02-07T06:29:13.167Z,39.48
2019-02-07T06:32:26.979Z,39.63
2019-02-07T06:35:41.935Z,39.38
2019-02-07T06:39:03.582Z,40.70
2019-02-07T06:42:12.518Z,36.45
2019-02-07T06:45:36.555Z,36.77
2019-02-07T06:48:46.702Z,36.80
2019-02-07T06:52:16.603Z,38.92
2019-02-07T06:55:31.694Z,38.08
2019-02-07T06:58:43.606Z,38.17
2019-02-07T07:01:55.954Z,38.40
2019-02-07T07:05:08.451Z,37.28
2019-02-07T07:08:27.318Z,39.55
2019-02-07T07:11:54.813Z,36.93
2019-02-07T07:15:17.243Z,38.38
2019-02-07T07:18:39.406Z,40.65
2019-02-07T07:21:57.462Z,35.75
2019-02-07T07:25:08.731Z,37.38
2019-02-07T07:28:25.120Z,36.53
2019-02-07T07:31:50.678Z,37.25
2019-02-07T07:35:42.104Z,38.60
2019-02-07T07:39:11.397Z,38.48
2019-02-07T07:42:32.321Z,37.78
2019-02-07T07:45:51.347Z,37.48
2019-02-07T07:48:58.816Z,36.70
2019-02-07T07:52:11.798Z,36.20
2019-02-07T07:55:48.375Z,36.95
2019-02-07T07:59:05.713Z,40.15
2019-02-07T08:02:32.666Z,38.35
2019-02-07T08:05:55.169Z,38.53
2019-02-07T08:09:12.687Z,37.38
2019-02-07T08:12:21.240Z,39.35
2019-02-07T08:15:38.119Z,38.67
2019-02-07T08:19:10.604Z,38.98
2019-02-07T08:22:24.570Z,37.78
2019-02-07T08:25:50.104Z,39.08
2019-02-07T08:29:07.154Z,40.00
2019-02-07T08:32:23.730Z,39.08
2019-02-07T08:35:30.244Z,36.17
2019-02-07T08:38:46.634Z,38.10
2019-02-07T08:42:07.083Z,36.58
2019-02-07T08:45:30.863Z,36.40
2019-02-07T08:50:05.834Z,36.13
2019-02-07T08:52:14.091Z,36.70
2019-02-07T08:55:43.305Z,36.42
2019-02-07T08:59:01.005Z,36.33
2019-02-07T09:02:14.497Z,37.73
2019-02-07T09:09:31.671Z,37.05
2019-02-07T09:12:41.775Z,37.10
2019-02-07T09:15:58.719Z,37.28
2019-02-07T09:19:18.711Z,36.40
2019-02-07T09:23:16.879Z,37.05
2019-02-07T09:26:35.846Z,36.50
2019-02-07T09:30:07.651Z,37.93
2019-02-07T09:33:49.979Z,37.55
2019-02-07T09:37:03.438Z,37.78
2019-02-07T09:40:27.333Z,36.83
2019-02-07T09:43:46.472Z,37.88
2019-02-07T09:47:10.136Z,39.92
2019-02-07T09:50:22.900Z,36.68
2019-02-07T09:53:27.385Z,38.30
2019-02-07T09:56:55.998Z,39.45
2019-02-07T10:00:07.868Z,36.83
2019-02-07T10:03:54.145Z,37.55
2019-02-07T10:07:22.685Z,38.88
2019-02-07T10:10:50.558Z,38.33
2019-02-07T10:14:03.737Z,37.20
2019-02-07T10:17:15.409Z,38.08
2019-02-07T10:20:31.775Z,43.70
2019-02-07T10:23:46.266Z,38.42
2019-02-07T10:26:53.522Z,40.17
2019-02-07T10:33:51.977Z,42.00
2019-02-07T10:37:15.048Z,43.28
2019-02-07T10:40:24.714Z,41.65
2019-02-07T10:43:38.235Z,44.50
2019-02-07T10:46:52.673Z,40.28
2019-02-07T10:50:05.087Z,41.80
2019-02-07T10:53:36.202Z,40.08
2019-02-07T10:57:02.167Z,39.03
2019-02-07T11:00:19.324Z,43.85
2019-02-07T11:03:32.487Z,40.73
2019-02-07T11:06:47.263Z,40.23
2019-02-07T11:10:04.086Z,42.38
2019-02-07T11:13:17.362Z,43.85
2019-02-07T11:16:34.141Z,39.92
2019-02-07T11:19:58.745Z,38.60
2019-02-07T11:23:16.637Z,41.60
2019-02-07T11:26:39.558Z,39.90
2019-02-07T11:29:42.173Z,41.23
2019-02-07T11:33:03.547Z,41.18
2019-02-07T11:36:21.786Z,39.35
2019-02-07T11:39:44.336Z,39.95
2019-02-07T11:43:03.802Z,38.80
2019-02-07T11:47:05.163Z,41.40
2019-02-07T11:50:18.927Z,41.10
2019-02-07T11:53:44.124Z,41.10
2019-02-07T11:57:00.214Z,42.78
2019-02-07T12:00:15.478Z,45.35
2019-02-07T12:03:31.784Z,43.92
2019-02-07T12:06:47.760Z,45.70
2019-02-07T12:10:01.114Z,50.08
2019-02-07T12:13:15.536Z,50.95
2019-02-07T12:16:21.299Z,44.03
2019-02-07T12:19:39.897Z,47.23
2019-02-07T12:23:02.244Z,48.40
2019-02-07T12:26:17.892Z,46.40
2019-02-07T12:29:37.159Z,42.95
2019-02-07T12:32:59.354Z,50.12
2019-02-07T12:36:10.088Z,47.00
2019-02-07T12:39:35.023Z,48.60
2019-02-07T12:42:41.709Z,47.98
2019-02-07T12:45:46.849Z,43.95
2019-02-07T12:49:28.723Z,49.18
2019-02-07T12:52:30.472Z,43.92
2019-02-07T12:55:52.014Z,44.63
2019-02-07T12:58:51.985Z,46.20
2019-02-07T13:02:03.728Z,48.55
2019-02-07T13:05:16.610Z,47.53
2019-02-07T13:08:28.917Z,48.38
2019-02-07T13:11:44.598Z,50.52
2019-02-07T13:15:08.497Z,49.05
2019-02-07T13:18:33.010Z,50.90
2019-02-07T13:22:00.959Z,54.73
2019-02-07T13:25:35.100Z,70.08
2019-02-07T13:28:51.077Z,60.28
2019-02-07T13:32:06.635Z,57.35
2019-02-07T13:35:17.929Z,62.45
2019-02-07T13:38:33.145Z,73.33
2019-02-07T13:41:49.459Z,80.12
2019-02-07T13:45:07.534Z,67.53
2019-02-07T13:48:19.387Z,73.95
2019-02-07T13:51:38.488Z,64.77
2019-02-07T13:54:56.640Z,56.60
2019-02-07T13:58:06.353Z,55.58
2019-02-07T14:01:17.645Z,56.80
2019-02-07T14:04:32.940Z,57.00
2019-02-07T14:08:01.593Z,57.58
2019-02-07T14:11:29.676Z,56.28
2019-02-07T14:14:52.854Z,55.85
2019-02-07T14:18:03.914Z,61.75
2019-02-07T14:21:20.328Z,69.75
2019-02-07T14:24:25.395Z,75.87
2019-02-07T14:27:44.158Z,74.85
2019-02-07T14:30:57.460Z,71.15
2019-02-07T14:34:08.821Z,73.85
2019-02-07T14:37:26.962Z,66.97
2019-02-07T14:40:57.794Z,61.63
2019-02-07T14:44:16.288Z,56.37
2019-02-07T14:47:10.952Z,54.80
2019-02-07T14:50:14.542Z,61.37
2019-02-07T14:53:02.190Z,58.85
2019-02-07T14:55:57.093Z,55.25
2019-02-07T14:58:52.089Z,68.80
2019-02-07T15:01:48.030Z,68.22
2019-02-07T15:04:43.051Z,63.17
2019-02-07T15:07:38.479Z,73.97
2019-02-07T15:10:34.163Z,74.92
2019-02-07T15:13:29.448Z,69.90
2019-02-07T15:16:24.473Z,83.00
2019-02-07T15:19:19.642Z,74.42
2019-02-07T15:22:15.422Z,71.80
2019-02-07T15:25:10.763Z,74.47
2019-02-07T15:28:06.241Z,76.22
2019-02-07T15:31:01.436Z,73.22
2019-02-07T15:33:56.651Z,76.25
2019-02-07T15:36:53.649Z,78.78
2019-02-07T15:39:48.937Z,77.65
2019-02-07T15:42:44.817Z,76.85
2019-02-07T15:45:39.881Z,78.90
2019-02-07T15:48:35.743Z,73.37
2019-02-07T15:51:31.322Z,82.70
2019-02-07T15:54:27.072Z,81.95
2019-02-07T15:57:21.733Z,84.83
2019-02-07T16:00:31.836Z,82.53
2019-02-07T16:03:33.408Z,78.28
2019-02-07T16:06:28.613Z,76.60
2019-02-07T16:09:24.156Z,74.05
2019-02-07T16:12:20.938Z,73.60
2019-02-07T16:15:17.160Z,85.32
2019-02-07T16:18:12.368Z,83.15
2019-02-07T16:21:07.661Z,79.62
2019-02-07T16:24:02.937Z,88.82
2019-02-07T16:26:57.817Z,85.75
2019-02-07T16:29:52.834Z,93.55
2019-02-07T16:32:48.076Z,97.02
2019-02-07T16:35:43.283Z,90.32
2019-02-07T16:38:39.928Z,90.77
2019-02-07T16:41:35.795Z,88.50
2019-02-07T16:44:30.448Z,81.70
2019-02-07T16:47:25.703Z,82.00
2019-02-07T16:50:21.959Z,69.20
2019-02-07T16:53:17.151Z,70.42
2019-02-07T16:56:12.286Z,69.67
2019-02-07T16:59:07.872Z,69.55
2019-02-07T17:02:02.795Z,69.37
2019-02-07T17:04:57.941Z,67.75
2019-02-07T17:07:53.297Z,66.77
2019-02-07T17:10:48.415Z,69.32
2019-02-07T17:13:45.410Z,66.50
2019-02-07T17:16:40.430Z,69.72
2019-02-07T17:19:35.292Z,67.10
2019-02-07T17:22:30.996Z,68.67
2019-02-07T17:25:26.642Z,63.08
2019-02-07T17:28:21.737Z,61.83
2019-02-07T17:31:16.443Z,61.37
2019-02-07T17:34:11.488Z,56.20
2019-02-07T17:37:06.969Z,56.28
2019-02-07T17:40:01.584Z,55.78
2019-02-07T17:42:57.366Z,60.63
2019-02-07T17:45:51.849Z,57.08
2019-02-07T17:48:46.427Z,57.73
2019-02-07T17:51:41.562Z,60.23
2019-02-07T17:54:36.451Z,58.35
2019-02-07T17:57:31.420Z,59.60
2019-02-07T18:00:57.334Z,58.25
2019-02-07T18:03:51.638Z,56.85
2019-02-07T18:06:46.371Z,57.33
2019-02-07T18:09:41.316Z,55.50
2019-02-07T18:12:36.923Z,56.35
2019-02-07T18:15:32.360Z,53.85
2019-02-07T18:18:26.986Z,51.75
2019-02-07T18:21:21.584Z,56.75
2019-02-07T18:24:16.609Z,54.88
2019-02-07T18:27:11.203Z,53.58
2019-02-07T18:30:08.943Z,53.83
2019-02-07T18:33:04.536Z,68.10
2019-02-07T18:35:59.662Z,58.38
2019-02-07T18:38:54.505Z,60.17
2019-02-07T18:41:49.308Z,58.73
2019-02-07T18:44:44.039Z,55.38
2019-02-07T18:47:39.034Z,54.90
2019-02-07T18:50:36.722Z,54.80
2019-02-07T18:53:31.921Z,55.28
2019-02-07T18:56:26.790Z,55.33
2019-02-07T18:59:21.557Z,54.53
2019-02-07T19:02:16.723Z,56.60
2019-02-07T19:05:13.548Z,55.40
2019-02-07T19:08:08.535Z,52.35
2019-02-07T19:11:03.337Z,51.88
2019-02-07T19:13:58.175Z,53.20
2019-02-07T19:16:53.361Z,52.15
2019-02-07T19:19:48.208Z,50.95
2019-02-07T19:22:43.158Z,51.45
2019-02-07T19:25:37.841Z,51.68
2019-02-07T19:28:32.577Z,48.10
2019-02-07T19:31:28.548Z,40.92
2019-02-07T19:34:23.197Z,45.50
2019-02-07T19:37:17.986Z,43.13
2019-02-07T19:40:14.065Z,44.48
2019-02-07T19:43:09.154Z,44.70
2019-02-07T19:46:03.727Z,44.20
2019-02-07T19:49:00.232Z,43.45
2019-02-07T19:51:55.449Z,42.27
2019-02-07T19:54:50.470Z,42.08
2019-02-07T19:57:45.406Z,42.40
2019-02-07T20:00:40.909Z,41.30
2019-02-07T20:03:36.219Z,41.70
2019-02-07T20:06:31.206Z,39.45
2019-02-07T20:09:26.345Z,39.25
2019-02-07T20:12:21.158Z,40.38
2019-02-07T20:15:21.502Z,42.05
2019-02-07T20:34:07.396Z,49.25
2019-02-07T20:37:08.542Z,48.35
2019-02-07T20:40:13.195Z,47.27
2019-02-07T20:43:16.058Z,46.25
2019-02-07T20:46:19.275Z,46.95
2019-02-07T20:49:23.997Z,46.90
2019-02-07T20:52:28.119Z,45.85
2019-02-07T20:55:31.522Z,46.15
2019-02-07T20:58:33.089Z,46.58
2019-02-07T21:01:36.779Z,47.23
2019-02-07T21:04:39.936Z,46.33
2019-02-07T21:07:44.112Z,46.28
2019-02-07T21:10:48.214Z,47.08
2019-02-07T21:13:51.962Z,45.83
2019-02-07T21:16:54.375Z,46.65
2019-02-07T21:19:57.502Z,45.80
2019-02-07T21:22:57.445Z,46.13
2019-02-07T21:25:56.745Z,46.80
2019-02-07T21:28:58.325Z,47.08
2019-02-07T21:32:02.248Z,47.53
2019-02-07T21:35:05.326Z,47.03
2019-02-07T21:38:09.170Z,47.27
2019-02-07T21:41:12.912Z,45.73
2019-02-07T21:44:14.776Z,46.68
2019-02-07T21:47:19.059Z,47.58
2019-02-07T21:50:23.795Z,47.98
2019-02-07T21:53:22.884Z,46.53
2019-02-07T21:56:26.441Z,46.10
2019-02-07T21:59:29.433Z,45.65
2019-02-07T22:02:33.034Z,46.05
2019-02-07T22:05:37.198Z,43.87
2019-02-07T22:08:40.613Z,43.25
2019-02-07T22:11:44.047Z,42.93
2019-02-07T22:14:48.357Z,41.33
2019-02-07T22:17:51.323Z,39.88
2019-02-07T22:20:54.569Z,40.83
2019-02-07T22:23:58.804Z,39.13
2019-02-07T22:27:03.031Z,38.45
2019-02-07T22:30:05.946Z,36.85
2019-02-07T22:33:07.207Z,35.50
2019-02-07T22:36:01.704Z,35.68
2019-02-07T22:38:57.288Z,34.35
2019-02-07T22:41:51.958Z,37.00
2019-02-07T22:44:46.908Z,36.80
2019-02-07T22:47:41.719Z,37.48
2019-02-07T22:50:36.810Z,36.77
2019-02-07T22:53:31.372Z,36.70
2019-02-07T22:56:25.940Z,35.33
2019-02-07T22:59:20.800Z,35.58
2019-02-07T23:02:16.218Z,35.78
2019-02-07T23:05:11.299Z,34.90
2019-02-07T23:08:06.465Z,36.95
2019-02-07T23:11:07.956Z,36.65
2019-02-07T23:14:12.763Z,35.33
2019-02-07T23:17:16.980Z,35.60
2019-02-07T23:20:21.009Z,35.15
2019-02-07T23:23:27.502Z,35.88
2019-02-07T23:26:30.155Z,36.33
2019-02-07T23:29:35.719Z,36.70
2019-02-07T23:32:34.546Z,37.23
2019-02-07T23:35:37.100Z,37.13
2019-02-07T23:38:37.036Z,37.93
2019-02-07T23:41:40.886Z,39.33
2019-02-07T23:44:44.423Z,37.78
2019-02-07T23:47:44.715Z,37.98
2019-02-07T23:50:43.788Z,39.88
2019-02-07T23:53:43.429Z,39.53
2019-02-07T23:56:43.348Z,40.33
2019-02-07T23:59:43.192Z,40.52
